sensor_id;sensor_type;location;lat;lon;timestamp;temperature;humidity
1455;DHT22;721;48.168;12.818;2023-05-27T00:01:23;17.20;1.00
1455;DHT22;721;48.168;12.818;2023-05-27T00:03:50;17.10;1.00
1455;DHT22;721;48.168;12.818;2023-05-27T00:06:17;17.00;1.00
1455;DHT22;721;48.168;12.818;2023-05-27T00:08:44;17.10;1.00
1455;DHT22;721;48.168;12.818;2023-05-27T00:11:11;17.10;1.00
1455;DHT22;721;48.168;12.818;2023-05-27T00:13:37;17.00;1.00
1455;DHT22;721;48.168;12.818;2023-05-27T00:16:06;16.90;1.00
1455;DHT22;721;48.168;12.818;2023-05-27T00:18:33;16.90;1.00
1455;DHT22;721;48.168;12.818;2023-05-27T00:21:01;16.90;1.00
1455;DHT22;721;48.168;12.818;2023-05-27T00:23:28;16.90;1.00
1455;DHT22;721;48.168;12.818;2023-05-27T00:25:55;16.90;1.00
1455;DHT22;721;48.168;12.818;2023-05-27T00:28:21;16.80;1.00
1455;DHT22;721;48.168;12.818;2023-05-27T00:30:48;16.90;1.00
1455;DHT22;721;48.168;12.818;2023-05-27T00:33:16;16.80;1.00
1455;DHT22;721;48.168;12.818;2023-05-27T00:35:43;16.80;1.00
1455;DHT22;721;48.168;12.818;2023-05-27T00:38:10;16.80;1.00
1455;DHT22;721;48.168;12.818;2023-05-27T00:40:36;16.80;1.00
1455;DHT22;721;48.168;12.818;2023-05-27T00:43:05;16.80;1.00
1455;DHT22;721;48.168;12.818;2023-05-27T00:45:32;16.80;1.00
1455;DHT22;721;48.168;12.818;2023-05-27T00:47:59;16.80;1.00
1455;DHT22;721;48.168;12.818;2023-05-27T00:50:29;16.80;1.00
1455;DHT22;721;48.168;12.818;2023-05-27T00:52:57;16.80;1.00
1455;DHT22;721;48.168;12.818;2023-05-27T00:55:25;16.80;1.00
1455;DHT22;721;48.168;12.818;2023-05-27T00:57:52;16.80;1.00
1455;DHT22;721;48.168;12.818;2023-05-27T01:00:20;16.70;1.00
1455;DHT22;721;48.168;12.818;2023-05-27T01:02:47;16.60;1.00
1455;DHT22;721;48.168;12.818;2023-05-27T01:05:15;16.60;1.00
1455;DHT22;721;48.168;12.818;2023-05-27T01:07:55;16.50;1.00
1455;DHT22;721;48.168;12.818;2023-05-27T01:10:31;16.50;1.00
1455;DHT22;721;48.168;12.818;2023-05-27T01:13:10;16.50;1.00
1455;DHT22;721;48.168;12.818;2023-05-27T01:15:38;16.60;1.00
1455;DHT22;721;48.168;12.818;2023-05-27T01:18:06;16.30;1.00
1455;DHT22;721;48.168;12.818;2023-05-27T01:20:34;16.30;1.00
1455;DHT22;721;48.168;12.818;2023-05-27T01:23:08;16.40;1.00
1455;DHT22;721;48.168;12.818;2023-05-27T01:25:34;16.40;1.00
1455;DHT22;721;48.168;12.818;2023-05-27T01:28:01;16.30;1.00
1455;DHT22;721;48.168;12.818;2023-05-27T01:30:28;16.40;1.00
1455;DHT22;721;48.168;12.818;2023-05-27T01:32:59;16.40;1.00
1455;DHT22;721;48.168;12.818;2023-05-27T01:35:29;16.40;1.00
1455;DHT22;721;48.168;12.818;2023-05-27T01:37:57;16.30;1.00
1455;DHT22;721;48.168;12.818;2023-05-27T01:40:27;16.30;1.00
1455;DHT22;721;48.168;12.818;2023-05-27T01:42:56;16.30;1.00
1455;DHT22;721;48.168;12.818;2023-05-27T01:45:23;16.30;1.00
1455;DHT22;721;48.168;12.818;2023-05-27T01:47:51;16.30;1.00
1455;DHT22;721;48.168;12.818;2023-05-27T01:50:18;16.30;1.00
1455;DHT22;721;48.168;12.818;2023-05-27T01:52:45;16.20;1.00
1455;DHT22;721;48.168;12.818;2023-05-27T01:55:12;16.20;1.00
1455;DHT22;721;48.168;12.818;2023-05-27T01:57:40;16.20;1.00
1455;DHT22;721;48.168;12.818;2023-05-27T02:00:07;16.00;1.00
1455;DHT22;721;48.168;12.818;2023-05-27T02:02:35;16.10;1.00
1455;DHT22;721;48.168;12.818;2023-05-27T02:05:02;16.10;1.00
1455;DHT22;721;48.168;12.818;2023-05-27T02:07:28;16.10;1.00
1455;DHT22;721;48.168;12.818;2023-05-27T02:09:55;15.90;1.00
1455;DHT22;721;48.168;12.818;2023-05-27T02:12:22;15.90;1.00
1455;DHT22;721;48.168;12.818;2023-05-27T02:14:50;16.00;1.00
1455;DHT22;721;48.168;12.818;2023-05-27T02:17:17;15.90;1.00
1455;DHT22;721;48.168;12.818;2023-05-27T02:19:44;15.90;1.00
1455;DHT22;721;48.168;12.818;2023-05-27T02:22:11;15.90;1.00
1455;DHT22;721;48.168;12.818;2023-05-27T02:24:38;15.90;1.00
1455;DHT22;721;48.168;12.818;2023-05-27T02:27:05;15.90;1.00
1455;DHT22;721;48.168;12.818;2023-05-27T02:29:32;15.90;1.00
1455;DHT22;721;48.168;12.818;2023-05-27T02:32:00;15.90;1.00
1455;DHT22;721;48.168;12.818;2023-05-27T02:34:27;15.80;1.00
1455;DHT22;721;48.168;12.818;2023-05-27T02:36:53;15.70;1.00
1455;DHT22;721;48.168;12.818;2023-05-27T02:39:20;15.70;1.00
1455;DHT22;721;48.168;12.818;2023-05-27T02:41:47;15.60;1.00
1455;DHT22;721;48.168;12.818;2023-05-27T02:44:14;15.40;1.00
1455;DHT22;721;48.168;12.818;2023-05-27T02:46:41;15.40;1.00
1455;DHT22;721;48.168;12.818;2023-05-27T02:49:09;15.40;1.00
1455;DHT22;721;48.168;12.818;2023-05-27T02:51:36;15.40;1.00
1455;DHT22;721;48.168;12.818;2023-05-27T02:54:03;15.30;1.00
1455;DHT22;721;48.168;12.818;2023-05-27T02:56:29;15.30;1.00
1455;DHT22;721;48.168;12.818;2023-05-27T02:58:56;15.30;1.00
1455;DHT22;721;48.168;12.818;2023-05-27T03:01:23;15.30;1.00
1455;DHT22;721;48.168;12.818;2023-05-27T03:03:50;15.30;1.00
1455;DHT22;721;48.168;12.818;2023-05-27T03:06:18;15.20;1.00
1455;DHT22;721;48.168;12.818;2023-05-27T03:08:45;15.20;1.00
1455;DHT22;721;48.168;12.818;2023-05-27T03:11:12;15.20;1.00
1455;DHT22;721;48.168;12.818;2023-05-27T03:13:39;15.20;1.00
1455;DHT22;721;48.168;12.818;2023-05-27T03:16:06;15.00;1.00
1455;DHT22;721;48.168;12.818;2023-05-27T03:18:33;15.00;1.00
1455;DHT22;721;48.168;12.818;2023-05-27T03:20:59;14.90;1.00
1455;DHT22;721;48.168;12.818;2023-05-27T03:23:28;14.90;1.00
1455;DHT22;721;48.168;12.818;2023-05-27T03:25:54;14.80;1.00
1455;DHT22;721;48.168;12.818;2023-05-27T03:28:21;14.80;1.00
1455;DHT22;721;48.168;12.818;2023-05-27T03:30:48;14.80;1.00
1455;DHT22;721;48.168;12.818;2023-05-27T03:33:15;14.70;1.00
1455;DHT22;721;48.168;12.818;2023-05-27T03:35:41;14.70;1.30
1455;DHT22;721;48.168;12.818;2023-05-27T03:38:08;14.80;2.00
1455;DHT22;721;48.168;12.818;2023-05-27T03:40:36;14.80;2.20
1455;DHT22;721;48.168;12.818;2023-05-27T03:43:03;14.60;5.50
1455;DHT22;721;48.168;12.818;2023-05-27T03:45:30;14.60;6.60
1455;DHT22;721;48.168;12.818;2023-05-27T03:47:56;14.60;5.70
1455;DHT22;721;48.168;12.818;2023-05-27T03:50:23;14.60;5.40
1455;DHT22;721;48.168;12.818;2023-05-27T03:52:50;14.60;5.50
1455;DHT22;721;48.168;12.818;2023-05-27T03:55:17;14.60;6.40
1455;DHT22;721;48.168;12.818;2023-05-27T03:57:47;14.50;6.60
1455;DHT22;721;48.168;12.818;2023-05-27T04:00:14;14.40;8.10
1455;DHT22;721;48.168;12.818;2023-05-27T04:02:42;14.30;8.40
1455;DHT22;721;48.168;12.818;2023-05-27T04:05:10;14.40;9.10
1455;DHT22;721;48.168;12.818;2023-05-27T04:07:37;14.40;9.10
1455;DHT22;721;48.168;12.818;2023-05-27T04:10:04;14.30;8.10
1455;DHT22;721;48.168;12.818;2023-05-27T04:12:32;14.30;8.70
1455;DHT22;721;48.168;12.818;2023-05-27T04:15:00;14.30;6.70
1455;DHT22;721;48.168;12.818;2023-05-27T04:17:26;14.40;6.20
1455;DHT22;721;48.168;12.818;2023-05-27T04:19:53;14.40;5.30
1455;DHT22;721;48.168;12.818;2023-05-27T04:22:20;14.50;5.40
1455;DHT22;721;48.168;12.818;2023-05-27T04:24:47;14.90;5.70
1455;DHT22;721;48.168;12.818;2023-05-27T04:27:14;14.60;5.40
1455;DHT22;721;48.168;12.818;2023-05-27T04:29:42;14.70;3.00
1455;DHT22;721;48.168;12.818;2023-05-27T04:32:11;14.70;2.00
1455;DHT22;721;48.168;12.818;2023-05-27T04:34:38;14.70;2.80
1455;DHT22;721;48.168;12.818;2023-05-27T04:37:07;14.70;1.00
1455;DHT22;721;48.168;12.818;2023-05-27T04:39:35;14.80;1.80
1455;DHT22;721;48.168;12.818;2023-05-27T04:42:01;14.80;1.00
1455;DHT22;721;48.168;12.818;2023-05-27T04:44:29;14.80;1.00
1455;DHT22;721;48.168;12.818;2023-05-27T04:46:55;14.80;2.00
1455;DHT22;721;48.168;12.818;2023-05-27T04:49:23;14.90;1.00
1455;DHT22;721;48.168;12.818;2023-05-27T04:51:51;15.00;1.00
1455;DHT22;721;48.168;12.818;2023-05-27T04:54:18;15.00;1.00
1455;DHT22;721;48.168;12.818;2023-05-27T04:56:44;15.10;1.00
1455;DHT22;721;48.168;12.818;2023-05-27T04:59:11;15.10;1.00
1455;DHT22;721;48.168;12.818;2023-05-27T05:01:42;15.10;1.00
1455;DHT22;721;48.168;12.818;2023-05-27T05:04:36;15.10;1.00
1455;DHT22;721;48.168;12.818;2023-05-27T05:07:03;15.10;1.00
1455;DHT22;721;48.168;12.818;2023-05-27T05:09:30;15.20;1.00
1455;DHT22;721;48.168;12.818;2023-05-27T05:11:57;15.30;1.00
1455;DHT22;721;48.168;12.818;2023-05-27T05:14:23;15.30;1.00
1455;DHT22;721;48.168;12.818;2023-05-27T05:16:50;15.30;1.00
1455;DHT22;721;48.168;12.818;2023-05-27T05:19:18;15.40;1.00
1455;DHT22;721;48.168;12.818;2023-05-27T05:21:46;15.40;1.00
1455;DHT22;721;48.168;12.818;2023-05-27T05:24:13;15.40;1.00
1455;DHT22;721;48.168;12.818;2023-05-27T05:26:40;15.40;1.00
1455;DHT22;721;48.168;12.818;2023-05-27T05:29:07;15.40;1.00
1455;DHT22;721;48.168;12.818;2023-05-27T05:31:34;15.50;1.00
1455;DHT22;721;48.168;12.818;2023-05-27T05:34:01;15.60;1.00
1455;DHT22;721;48.168;12.818;2023-05-27T05:36:29;15.60;1.00
1455;DHT22;721;48.168;12.818;2023-05-27T05:38:57;15.70;1.00
1455;DHT22;721;48.168;12.818;2023-05-27T05:41:24;15.60;1.00
1455;DHT22;721;48.168;12.818;2023-05-27T05:43:51;15.70;1.00
1455;DHT22;721;48.168;12.818;2023-05-27T05:46:18;15.70;1.00
1455;DHT22;721;48.168;12.818;2023-05-27T05:48:44;15.90;1.00
1455;DHT22;721;48.168;12.818;2023-05-27T05:51:11;15.80;1.00
1455;DHT22;721;48.168;12.818;2023-05-27T05:53:38;15.90;1.00
1455;DHT22;721;48.168;12.818;2023-05-27T05:56:06;15.90;1.00
1455;DHT22;721;48.168;12.818;2023-05-27T05:58:33;16.10;1.00
1455;DHT22;721;48.168;12.818;2023-05-27T06:01:00;16.20;1.00
1455;DHT22;721;48.168;12.818;2023-05-27T06:03:27;16.30;1.00
1455;DHT22;721;48.168;12.818;2023-05-27T06:05:54;16.40;1.00
1455;DHT22;721;48.168;12.818;2023-05-27T06:08:20;16.40;1.00
1455;DHT22;721;48.168;12.818;2023-05-27T06:10:47;16.60;1.00
1455;DHT22;721;48.168;12.818;2023-05-27T06:13:16;16.70;1.00
1455;DHT22;721;48.168;12.818;2023-05-27T06:15:43;16.90;1.00
1455;DHT22;721;48.168;12.818;2023-05-27T06:18:10;17.00;1.00
1455;DHT22;721;48.168;12.818;2023-05-27T06:20:36;17.00;1.00
1455;DHT22;721;48.168;12.818;2023-05-27T06:23:03;17.00;1.00
1455;DHT22;721;48.168;12.818;2023-05-27T06:25:30;17.10;1.00
1455;DHT22;721;48.168;12.818;2023-05-27T06:27:57;17.10;1.00
1455;DHT22;721;48.168;12.818;2023-05-27T06:30:27;17.30;1.00
1455;DHT22;721;48.168;12.818;2023-05-27T06:32:54;17.30;1.00
1455;DHT22;721;48.168;12.818;2023-05-27T06:35:20;17.30;1.00
1455;DHT22;721;48.168;12.818;2023-05-27T06:37:47;17.40;1.00
1455;DHT22;721;48.168;12.818;2023-05-27T06:40:14;17.50;1.00
1455;DHT22;721;48.168;12.818;2023-05-27T06:42:42;17.50;1.00
1455;DHT22;721;48.168;12.818;2023-05-27T06:45:10;17.70;1.00
1455;DHT22;721;48.168;12.818;2023-05-27T06:47:39;17.80;1.00
1455;DHT22;721;48.168;12.818;2023-05-27T06:50:06;17.80;1.00
1455;DHT22;721;48.168;12.818;2023-05-27T06:52:33;18.00;1.00
1455;DHT22;721;48.168;12.818;2023-05-27T06:55:00;18.10;1.00
1455;DHT22;721;48.168;12.818;2023-05-27T06:57:27;18.20;1.00
1455;DHT22;721;48.168;12.818;2023-05-27T06:59:54;18.30;1.00
1455;DHT22;721;48.168;12.818;2023-05-27T07:02:21;18.50;1.00
1455;DHT22;721;48.168;12.818;2023-05-27T07:04:49;18.50;1.00
1455;DHT22;721;48.168;12.818;2023-05-27T07:07:19;18.80;1.00
1455;DHT22;721;48.168;12.818;2023-05-27T07:09:46;18.70;1.00
1455;DHT22;721;48.168;12.818;2023-05-27T07:12:12;18.80;1.00
1455;DHT22;721;48.168;12.818;2023-05-27T07:14:39;18.70;1.00
1455;DHT22;721;48.168;12.818;2023-05-27T07:17:06;18.60;1.00
1455;DHT22;721;48.168;12.818;2023-05-27T07:19:33;18.50;1.00
1455;DHT22;721;48.168;12.818;2023-05-27T07:22:01;18.20;1.00
1455;DHT22;721;48.168;12.818;2023-05-27T07:24:27;18.20;1.00
1455;DHT22;721;48.168;12.818;2023-05-27T07:26:54;18.20;1.00
1455;DHT22;721;48.168;12.818;2023-05-27T07:29:21;18.10;1.00
1455;DHT22;721;48.168;12.818;2023-05-27T07:31:48;18.10;1.00
1455;DHT22;721;48.168;12.818;2023-05-27T07:34:14;18.40;1.00
1455;DHT22;721;48.168;12.818;2023-05-27T07:36:41;18.40;1.00
1455;DHT22;721;48.168;12.818;2023-05-27T07:39:09;18.60;1.00
1455;DHT22;721;48.168;12.818;2023-05-27T07:41:36;18.70;1.00
1455;DHT22;721;48.168;12.818;2023-05-27T07:44:03;19.00;1.00
1455;DHT22;721;48.168;12.818;2023-05-27T07:46:30;19.10;1.00
1455;DHT22;721;48.168;12.818;2023-05-27T07:48:57;19.30;1.00
1455;DHT22;721;48.168;12.818;2023-05-27T07:51:24;19.50;1.00
1455;DHT22;721;48.168;12.818;2023-05-27T07:53:51;19.60;1.00
1455;DHT22;721;48.168;12.818;2023-05-27T07:56:19;19.50;1.00
1455;DHT22;721;48.168;12.818;2023-05-27T07:58:46;19.60;1.00
1455;DHT22;721;48.168;12.818;2023-05-27T08:01:13;19.60;1.00
1455;DHT22;721;48.168;12.818;2023-05-27T08:03:39;19.60;1.00
1455;DHT22;721;48.168;12.818;2023-05-27T08:06:06;19.70;1.00
1455;DHT22;721;48.168;12.818;2023-05-27T08:08:33;19.80;1.00
1455;DHT22;721;48.168;12.818;2023-05-27T08:11:00;20.00;1.00
1455;DHT22;721;48.168;12.818;2023-05-27T08:13:28;20.30;1.00
1455;DHT22;721;48.168;12.818;2023-05-27T08:15:55;20.40;1.00
1455;DHT22;721;48.168;12.818;2023-05-27T08:18:22;20.40;1.00
1455;DHT22;721;48.168;12.818;2023-05-27T08:20:48;20.30;1.00
1455;DHT22;721;48.168;12.818;2023-05-27T08:23:15;20.50;1.00
1455;DHT22;721;48.168;12.818;2023-05-27T08:25:42;20.50;1.00
1455;DHT22;721;48.168;12.818;2023-05-27T08:28:09;20.50;1.00
1455;DHT22;721;48.168;12.818;2023-05-27T08:30:38;20.50;1.00
1455;DHT22;721;48.168;12.818;2023-05-27T08:33:05;20.60;1.00
1455;DHT22;721;48.168;12.818;2023-05-27T08:35:31;20.60;1.00
1455;DHT22;721;48.168;12.818;2023-05-27T08:37:58;20.80;1.00
1455;DHT22;721;48.168;12.818;2023-05-27T08:40:25;20.70;1.00
1455;DHT22;721;48.168;12.818;2023-05-27T08:42:52;20.80;1.00
1455;DHT22;721;48.168;12.818;2023-05-27T08:45:19;20.90;1.00
1455;DHT22;721;48.168;12.818;2023-05-27T08:47:49;20.80;1.00
1455;DHT22;721;48.168;12.818;2023-05-27T08:50:18;20.90;1.00
1455;DHT22;721;48.168;12.818;2023-05-27T08:52:48;20.90;1.00
1455;DHT22;721;48.168;12.818;2023-05-27T08:55:17;21.00;1.00
1455;DHT22;721;48.168;12.818;2023-05-27T08:57:49;21.10;1.00
1455;DHT22;721;48.168;12.818;2023-05-27T09:00:17;21.20;1.00
1455;DHT22;721;48.168;12.818;2023-05-27T09:02:43;21.00;1.00
1455;DHT22;721;48.168;12.818;2023-05-27T09:05:12;21.10;1.00
1455;DHT22;721;48.168;12.818;2023-05-27T09:07:39;21.20;1.00
1455;DHT22;721;48.168;12.818;2023-05-27T09:10:06;21.10;1.00
1455;DHT22;721;48.168;12.818;2023-05-27T09:12:34;21.20;1.00
1455;DHT22;721;48.168;12.818;2023-05-27T09:15:02;21.20;1.00
1455;DHT22;721;48.168;12.818;2023-05-27T09:17:29;21.30;1.00
1455;DHT22;721;48.168;12.818;2023-05-27T09:19:56;21.40;1.00
1455;DHT22;721;48.168;12.818;2023-05-27T09:22:28;21.50;1.00
1455;DHT22;721;48.168;12.818;2023-05-27T09:24:55;21.30;1.00
1455;DHT22;721;48.168;12.818;2023-05-27T09:27:25;21.40;1.00
1455;DHT22;721;48.168;12.818;2023-05-27T09:29:52;21.40;1.00
1455;DHT22;721;48.168;12.818;2023-05-27T09:32:25;21.50;1.00
1455;DHT22;721;48.168;12.818;2023-05-27T09:34:53;21.60;1.00
1455;DHT22;721;48.168;12.818;2023-05-27T09:37:19;21.50;1.00
1455;DHT22;721;48.168;12.818;2023-05-27T09:39:51;21.60;1.00
1455;DHT22;721;48.168;12.818;2023-05-27T09:42:18;21.70;1.00
1455;DHT22;721;48.168;12.818;2023-05-27T09:44:46;21.80;1.00
1455;DHT22;721;48.168;12.818;2023-05-27T09:47:16;21.60;1.00
1455;DHT22;721;48.168;12.818;2023-05-27T09:49:43;21.90;1.00
1455;DHT22;721;48.168;12.818;2023-05-27T09:52:11;22.00;1.00
1455;DHT22;721;48.168;12.818;2023-05-27T09:54:39;22.20;1.00
1455;DHT22;721;48.168;12.818;2023-05-27T09:57:08;22.10;1.00
1455;DHT22;721;48.168;12.818;2023-05-27T09:59:37;22.10;1.00
1455;DHT22;721;48.168;12.818;2023-05-27T10:02:06;22.20;1.00
1455;DHT22;721;48.168;12.818;2023-05-27T10:04:34;22.30;1.00
1455;DHT22;721;48.168;12.818;2023-05-27T10:07:02;22.30;1.00
1455;DHT22;721;48.168;12.818;2023-05-27T10:09:29;22.30;1.00
1455;DHT22;721;48.168;12.818;2023-05-27T10:11:57;22.30;1.00
1455;DHT22;721;48.168;12.818;2023-05-27T10:14:26;22.30;1.00
1455;DHT22;721;48.168;12.818;2023-05-27T10:16:55;22.40;1.00
1455;DHT22;721;48.168;12.818;2023-05-27T10:19:22;22.40;1.00
1455;DHT22;721;48.168;12.818;2023-05-27T10:21:49;22.40;1.00
1455;DHT22;721;48.168;12.818;2023-05-27T10:24:15;22.50;1.00
1455;DHT22;721;48.168;12.818;2023-05-27T10:26:44;22.50;1.00
1455;DHT22;721;48.168;12.818;2023-05-27T10:29:12;22.40;1.00
1455;DHT22;721;48.168;12.818;2023-05-27T10:31:47;22.30;1.00
1455;DHT22;721;48.168;12.818;2023-05-27T10:34:15;22.60;1.00
1455;DHT22;721;48.168;12.818;2023-05-27T10:36:43;22.70;1.00
1455;DHT22;721;48.168;12.818;2023-05-27T10:39:15;22.90;1.00
1455;DHT22;721;48.168;12.818;2023-05-27T10:41:44;22.70;1.00
1455;DHT22;721;48.168;12.818;2023-05-27T10:44:25;22.50;1.00
1455;DHT22;721;48.168;12.818;2023-05-27T10:46:59;22.60;1.00
1455;DHT22;721;48.168;12.818;2023-05-27T10:49:27;22.70;1.00
1455;DHT22;721;48.168;12.818;2023-05-27T10:52:05;22.70;1.00
1455;DHT22;721;48.168;12.818;2023-05-27T10:54:33;22.90;1.00
1455;DHT22;721;48.168;12.818;2023-05-27T10:57:02;22.90;1.00
1455;DHT22;721;48.168;12.818;2023-05-27T10:59:40;22.80;1.00
1455;DHT22;721;48.168;12.818;2023-05-27T11:02:08;22.70;1.00
1455;DHT22;721;48.168;12.818;2023-05-27T11:04:35;22.80;1.00
1455;DHT22;721;48.168;12.818;2023-05-27T11:07:03;22.80;1.00
1455;DHT22;721;48.168;12.818;2023-05-27T11:09:31;22.90;1.00
1455;DHT22;721;48.168;12.818;2023-05-27T11:12:01;22.80;1.00
1455;DHT22;721;48.168;12.818;2023-05-27T11:14:29;22.90;1.00
1455;DHT22;721;48.168;12.818;2023-05-27T11:16:56;23.10;1.00
1455;DHT22;721;48.168;12.818;2023-05-27T11:19:24;23.20;1.00
1455;DHT22;721;48.168;12.818;2023-05-27T11:21:51;23.00;1.00
1455;DHT22;721;48.168;12.818;2023-05-27T11:24:19;22.90;1.00
1455;DHT22;721;48.168;12.818;2023-05-27T11:26:47;23.00;1.00
1455;DHT22;721;48.168;12.818;2023-05-27T11:29:15;23.10;1.00
1455;DHT22;721;48.168;12.818;2023-05-27T11:31:46;22.80;1.00
1455;DHT22;721;48.168;12.818;2023-05-27T11:34:14;22.80;1.00
1455;DHT22;721;48.168;12.818;2023-05-27T11:36:44;22.80;1.00
1455;DHT22;721;48.168;12.818;2023-05-27T11:39:12;23.00;1.00
1455;DHT22;721;48.168;12.818;2023-05-27T11:41:48;23.30;1.00
1455;DHT22;721;48.168;12.818;2023-05-27T11:44:17;23.40;1.00
1455;DHT22;721;48.168;12.818;2023-05-27T11:46:45;23.40;1.00
1455;DHT22;721;48.168;12.818;2023-05-27T11:49:14;23.40;1.00
1455;DHT22;721;48.168;12.818;2023-05-27T11:51:44;23.20;1.00
1455;DHT22;721;48.168;12.818;2023-05-27T11:54:18;23.50;1.00
1455;DHT22;721;48.168;12.818;2023-05-27T11:56:47;23.50;1.00
1455;DHT22;721;48.168;12.818;2023-05-27T11:59:14;23.70;1.00
1455;DHT22;721;48.168;12.818;2023-05-27T12:01:41;23.70;1.00
1455;DHT22;721;48.168;12.818;2023-05-27T12:04:08;23.80;1.00
1455;DHT22;721;48.168;12.818;2023-05-27T12:06:35;23.80;1.00
1455;DHT22;721;48.168;12.818;2023-05-27T12:09:04;24.00;1.00
1455;DHT22;721;48.168;12.818;2023-05-27T12:11:32;24.10;1.00
1455;DHT22;721;48.168;12.818;2023-05-27T12:13:59;24.20;1.00
1455;DHT22;721;48.168;12.818;2023-05-27T12:16:25;24.20;1.00
1455;DHT22;721;48.168;12.818;2023-05-27T12:18:52;24.20;1.00
1455;DHT22;721;48.168;12.818;2023-05-27T12:21:19;24.30;1.00
1455;DHT22;721;48.168;12.818;2023-05-27T12:23:46;24.30;1.00
1455;DHT22;721;48.168;12.818;2023-05-27T12:26:15;24.40;1.00
1455;DHT22;721;48.168;12.818;2023-05-27T12:28:42;24.50;1.00
1455;DHT22;721;48.168;12.818;2023-05-27T12:31:09;24.20;1.00
1455;DHT22;721;48.168;12.818;2023-05-27T12:33:36;24.20;1.00
1455;DHT22;721;48.168;12.818;2023-05-27T12:36:03;24.30;1.00
1455;DHT22;721;48.168;12.818;2023-05-27T12:38:30;24.50;1.00
1455;DHT22;721;48.168;12.818;2023-05-27T12:40:57;24.60;1.00
1455;DHT22;721;48.168;12.818;2023-05-27T12:43:25;24.60;1.00
1455;DHT22;721;48.168;12.818;2023-05-27T12:45:52;24.70;1.00
1455;DHT22;721;48.168;12.818;2023-05-27T12:48:19;24.50;1.00
1455;DHT22;721;48.168;12.818;2023-05-27T12:50:46;24.50;1.00
1455;DHT22;721;48.168;12.818;2023-05-27T12:53:13;24.50;1.00
1455;DHT22;721;48.168;12.818;2023-05-27T12:55:42;24.50;1.00
1455;DHT22;721;48.168;12.818;2023-05-27T12:58:10;24.50;1.00
1455;DHT22;721;48.168;12.818;2023-05-27T13:00:38;24.80;1.00
1455;DHT22;721;48.168;12.818;2023-05-27T13:03:05;25.20;1.00
1455;DHT22;721;48.168;12.818;2023-05-27T13:05:32;24.90;1.00
1455;DHT22;721;48.168;12.818;2023-05-27T13:08:00;25.20;1.00
1455;DHT22;721;48.168;12.818;2023-05-27T13:10:28;25.10;1.00
1455;DHT22;721;48.168;12.818;2023-05-27T13:12:55;25.00;1.00
1455;DHT22;721;48.168;12.818;2023-05-27T13:15:22;25.00;1.00
1455;DHT22;721;48.168;12.818;2023-05-27T13:17:51;24.90;1.00
1455;DHT22;721;48.168;12.818;2023-05-27T13:20:19;25.20;1.00
1455;DHT22;721;48.168;12.818;2023-05-27T13:22:46;25.20;1.00
1455;DHT22;721;48.168;12.818;2023-05-27T13:25:13;25.30;1.00
1455;DHT22;721;48.168;12.818;2023-05-27T13:27:42;25.40;1.00
1455;DHT22;721;48.168;12.818;2023-05-27T13:30:12;25.60;1.00
1455;DHT22;721;48.168;12.818;2023-05-27T13:32:39;25.30;1.00
1455;DHT22;721;48.168;12.818;2023-05-27T13:35:08;25.50;1.00
1455;DHT22;721;48.168;12.818;2023-05-27T13:37:36;25.80;1.00
1455;DHT22;721;48.168;12.818;2023-05-27T13:40:04;26.10;1.00
1455;DHT22;721;48.168;12.818;2023-05-27T13:42:31;26.00;1.00
1455;DHT22;721;48.168;12.818;2023-05-27T13:44:58;25.80;1.00
1455;DHT22;721;48.168;12.818;2023-05-27T13:47:24;25.80;1.00
1455;DHT22;721;48.168;12.818;2023-05-27T13:49:51;25.40;1.00
1455;DHT22;721;48.168;12.818;2023-05-27T13:52:20;25.40;1.00
1455;DHT22;721;48.168;12.818;2023-05-27T13:54:47;25.20;1.00
1455;DHT22;721;48.168;12.818;2023-05-27T13:57:13;25.30;1.00
1455;DHT22;721;48.168;12.818;2023-05-27T13:59:40;25.50;1.00
1455;DHT22;721;48.168;12.818;2023-05-27T14:02:07;26.10;1.00
1455;DHT22;721;48.168;12.818;2023-05-27T14:04:35;26.40;1.00
1455;DHT22;721;48.168;12.818;2023-05-27T14:07:01;26.30;1.00
1455;DHT22;721;48.168;12.818;2023-05-27T14:09:29;26.60;1.00
1455;DHT22;721;48.168;12.818;2023-05-27T14:11:56;26.40;1.00
1455;DHT22;721;48.168;12.818;2023-05-27T14:14:23;26.40;1.00
1455;DHT22;721;48.168;12.818;2023-05-27T14:16:50;26.20;1.00
1455;DHT22;721;48.168;12.818;2023-05-27T14:19:17;26.10;1.00
1455;DHT22;721;48.168;12.818;2023-05-27T14:21:43;26.30;1.00
1455;DHT22;721;48.168;12.818;2023-05-27T14:24:10;26.20;1.00
1455;DHT22;721;48.168;12.818;2023-05-27T14:26:39;26.30;1.00
1455;DHT22;721;48.168;12.818;2023-05-27T14:29:07;26.60;1.00
1455;DHT22;721;48.168;12.818;2023-05-27T14:31:33;26.40;1.00
1455;DHT22;721;48.168;12.818;2023-05-27T14:34:00;26.60;1.00
1455;DHT22;721;48.168;12.818;2023-05-27T14:36:27;26.80;1.00
1455;DHT22;721;48.168;12.818;2023-05-27T14:38:54;26.60;1.00
1455;DHT22;721;48.168;12.818;2023-05-27T14:41:21;26.80;1.00
1455;DHT22;721;48.168;12.818;2023-05-27T14:43:49;26.90;1.00
1455;DHT22;721;48.168;12.818;2023-05-27T14:46:16;27.00;1.00
1455;DHT22;721;48.168;12.818;2023-05-27T14:48:42;26.60;1.00
1455;DHT22;721;48.168;12.818;2023-05-27T14:51:09;26.60;1.00
1455;DHT22;721;48.168;12.818;2023-05-27T14:53:37;26.90;1.00
1455;DHT22;721;48.168;12.818;2023-05-27T14:56:04;27.20;1.00
1455;DHT22;721;48.168;12.818;2023-05-27T14:58:31;27.00;1.00
1455;DHT22;721;48.168;12.818;2023-05-27T15:00:59;27.00;1.00
1455;DHT22;721;48.168;12.818;2023-05-27T15:03:26;26.60;1.00
1455;DHT22;721;48.168;12.818;2023-05-27T15:05:55;26.90;1.00
1455;DHT22;721;48.168;12.818;2023-05-27T15:08:23;27.10;1.00
1455;DHT22;721;48.168;12.818;2023-05-27T15:10:50;26.90;1.00
1455;DHT22;721;48.168;12.818;2023-05-27T15:13:17;26.70;1.00
1455;DHT22;721;48.168;12.818;2023-05-27T15:15:44;26.80;1.00
1455;DHT22;721;48.168;12.818;2023-05-27T15:18:13;26.80;1.00
1455;DHT22;721;48.168;12.818;2023-05-27T15:20:40;27.00;1.00
1455;DHT22;721;48.168;12.818;2023-05-27T15:23:06;27.00;1.00
1455;DHT22;721;48.168;12.818;2023-05-27T15:25:33;26.80;1.00
1455;DHT22;721;48.168;12.818;2023-05-27T15:28:00;26.80;1.00
1455;DHT22;721;48.168;12.818;2023-05-27T15:30:27;27.00;1.00
1455;DHT22;721;48.168;12.818;2023-05-27T15:32:53;27.20;1.00
1455;DHT22;721;48.168;12.818;2023-05-27T15:35:21;26.70;1.00
1455;DHT22;721;48.168;12.818;2023-05-27T15:37:48;27.30;1.00
1455;DHT22;721;48.168;12.818;2023-05-27T15:40:15;26.80;1.00
1455;DHT22;721;48.168;12.818;2023-05-27T15:42:42;27.50;1.00
1455;DHT22;721;48.168;12.818;2023-05-27T15:45:10;27.20;1.00
1455;DHT22;721;48.168;12.818;2023-05-27T15:47:38;27.10;1.00
1455;DHT22;721;48.168;12.818;2023-05-27T15:50:06;27.30;1.00
1455;DHT22;721;48.168;12.818;2023-05-27T15:52:34;27.30;1.00
1455;DHT22;721;48.168;12.818;2023-05-27T15:55:01;27.30;1.00
1455;DHT22;721;48.168;12.818;2023-05-27T15:57:28;27.20;1.00
1455;DHT22;721;48.168;12.818;2023-05-27T15:59:54;27.20;1.00
1455;DHT22;721;48.168;12.818;2023-05-27T16:02:21;27.40;1.00
1455;DHT22;721;48.168;12.818;2023-05-27T16:04:48;27.50;1.00
1455;DHT22;721;48.168;12.818;2023-05-27T16:07:15;27.20;1.00
1455;DHT22;721;48.168;12.818;2023-05-27T16:09:44;27.00;1.00
1455;DHT22;721;48.168;12.818;2023-05-27T16:12:12;27.40;1.00
1455;DHT22;721;48.168;12.818;2023-05-27T16:14:39;27.30;1.00
1455;DHT22;721;48.168;12.818;2023-05-27T16:17:06;27.60;1.00
1455;DHT22;721;48.168;12.818;2023-05-27T16:19:33;27.90;1.00